Colorado AWOS List, Phone Numbers, Maps

USA |  
| Search AWOS

Rocky Mountain States: Montana | Wyoming | Colorado | New Mexico

Complete weather reports: Colorado

Legend: KFNL = METAR available Follow your local AWOS on AV Mobile = METAR available on AV Mobile
Station Colorado Location Frequency Phone
KAKOFAA ID AKO, ASOS, KAKO 291853Z AUTO 35017G25KT 10SM CLR 14/M05 A3026 RMK AO2 PK WND 01030/1758 SLP213 T01441050 Follow KAKO on AV Mobile COLORADO PLAINS REGIONAL 135.475 970-345-2320
KALSFAA ID ALS, ASOS, KALS 291852Z AUTO VRB05KT 10SM CLR 18/M09 A3029 Follow KALS on AV Mobile SAN LUIS VALLEY REGIONAL 135.175 719-589-5669
KASEFAA ID ASE, ASOS, KASE 291853Z 04008G15KT 10SM CLR 14/M12 A3031 Follow KASE on AV Mobile ASPEN-PITKIN COUNTY AIRPORT 120.400 970-925-9168
KBKFFAA ID BKF, KBKF 291858Z 12004KT 10SM FEW070 13/M06 A3030 Follow KBKF on AV Mobile Aurora, Buckley Air Force Base Airport
K7BMFAA ID 7BM, AWOS-3, K7BM 291915Z AUTO 00000KT 10SM CLR 14/M30 A3037 RMK AO2 Follow K7BM on AV Mobile Cottonwood Pass 132.050 303-512-4919
KBDUFAA ID BDU, AWOS-3, KBDU 291917Z AUTO 13010G14KT 10SM CLR 15/M05 A3025 RMK AO2 Follow KBDU on AV Mobile Boulder Municipal Airport 118.825 303-541-9540
KAEJFAA ID AEJ, AWOS-3, KAEJ 291915Z AUTO 06006KT 040V110 10SM CLR 17/M18 A3028 RMK AO2 T01671183 Follow KAEJ on AV Mobile Central Colorado Regional Airport 132.925 719-395-2599
KITRFAA ID ITR, ASOS, KITR 291853Z AUTO 34019G28KT 10SM CLR 17/M07 A3025 RMK AO2 PK WND 36032/1812 SLP211 T01671067 Follow KITR on AV Mobile Kit Carson County Airport 135.225 719-346-7036
K1V6FAA ID 1V6, AWOS-3, K1V6 291915Z AUTO 11012G17KT 10SM CLR 17/M04 A3030 RMK AO2 Follow K1V6 on AV Mobile CANON CITY 120.025
KAFFFAA ID AFF, KAFF 291858Z AUTO 16005KT 10SM CLR 12/M08 A3031 RMK AO2 SLP221 T01171077 Follow KAFF on AV Mobile Air Force Academy
KCOSFAA ID COS, ASOS, KCOS 291854Z 18005KT 10SM FEW080 13/M07 A3031 Follow KCOS on AV Mobile COLORADO SPRINGS MUNI 125.000 719-637-9696
KFLYFAA ID FLY, AWOS-3PT, KFLY 291915Z AUTO 09007KT 10SM CLR 13/M07 A3033 RMK AO2 T01281068 Follow KFLY on AV Mobile Meadowlake Airport, Peyton, CO 118.450 719-683-5371
KCCUFAA ID CCU, AWOS-3, KCCU 291915Z AUTO 27011G27KT 10SM CLR 03/M24 A3047 RMK AO2 Follow KCCU on AV Mobile Copper Mountain, Red Cliff Pass 118.075 970-968-1715
KCEZFAA ID CEZ, ASOS, KCEZ 291853Z AUTO 10SM CLR 23/M09 A3025 RMK AO2 SLP193 T02281089 Follow KCEZ on AV Mobile CORTEZ MONTEZUMA COUNTY AIRPORT 135.625 970-564-0193
KCAGFAA ID CAG, ASOS, KCAG 291853Z AUTO 26007KT 10SM CLR 15/M08 A3031 Follow KCAG on AV Mobile CRAIG MOFFAT AIRPORT 135.425 970-824-2373
KAJZFAA ID AJZ, AWOS-3, KAJZ 291915Z AUTO 27005KT 10SM CLR 22/M13 A3023 RMK AO2 T02191128 Follow KAJZ on AV Mobile Blake Field Airport 134.000 970-874-3251
KDNRICAO ID KDNR Denver / Stapleton International, Co.
KAPAFAA ID APA, ASOS, KAPA 291853Z 08008KT 040V110 10SM FEW080 12/M06 A3029 RMK AO2 SLP229 T01171061 Follow KAPA on AV Mobile DENVER CENTENNIAL AIRPORT 120.300 303-706-9098
KDENFAA ID DEN, ASOS, KDEN 291853Z 04003KT 10SM CLR 13/M06 A3028 Follow KDEN on AV Mobile DENVER INTERNATIONAL AIRPORT 125.600 303-342-0838
KFTGFAA ID FTG, AWOS-3, KFTG 291849Z 08006KT 10SM SKC 13/M04 A3030 Follow KFTG on AV Mobile Front Range Airport 119.025 303-261-9104
KBJCFAA ID BJC, AWOS-3, KBJC 291847Z AUTO 15009G17KT 40SM SKC 13/M07 A3030 Follow KBJC on AV Mobile Rocky Mountain Metro Airport 126.250 720-887-8067
K4V5ICAO ID K4V5 Durango Aviation Weather Reporting Station
KDROFAA ID DRO, ASOS, KDRO 291853Z AUTO 25007KT 210V310 10SM CLR 19/M07 A3026 RMK AO2 SLP200 T01941067 Follow KDRO on AV Mobile DURANGO-LA PLATA COUNTY AIRPORT 120.625 970-259-3579
KEGEFAA ID EGE, AWOS-3, KEGE 291850Z 00000KT 10SM SKC 16/M12 A3029 Follow KEGE on AV Mobile Eagle County Regional 135.575 970-524-7386
CO90FAA ID CO90, ASOS, KTEX 070640Z AUTO 15005KT 10SM CLR 02/M16 A3038 RMK AO2 T00201164 Follow  on AV Mobile USAF Academy Bullseye Aux Airstrip 118.325 719-683-3346
K0COFAA ID 0CO, AWOS-3, K0CO 291915Z AUTO 32018G25KT 10SM CLR 00/M04 A3046 RMK AO2 Follow K0CO on AV Mobile EMPIRE 134.325
KEIKFAA ID EIK, AWOS-3, KEIK 291915Z AUTO 13005G09KT 10SM CLR 15/M07 A3026 RMK AO2 T01461071 Follow KEIK on AV Mobile Erie Municipal Airport 133.825 303-604-4339
KFCSFAA ID FCS, KFCS 291858Z AUTO VRB01KT 10SM CLR 14/M06 A3030 RMK AO2 SLP236 T01441057 $ Follow KFCS on AV Mobile Fort Carson
KFCLICAO ID KFCL Fort Collins Supplementary Aviation Weather Reporting Station
KFNLFAA ID FNL, AWOS-3, KFNL 291915Z AUTO 20007G14KT 10SM CLR 15/M06 A3026 RMK AO1 Follow KFNL on AV Mobile Fort Collins/Loveland, Fort Collins-Loveland Municipal Airport 135.075 970-669-9187
KFMMFAA ID FMM, AWOS-3, KFMM 291915Z AUTO 35008G18KT 10SM CLR A3026 RMK AO2 Follow KFMM on AV Mobile Fort Morgan Municipal Airport 132.950 970-867-4823
KGNBFAA ID GNB, AWOS-1 Granby-Grand County Airport 119.925 970-887-1803
KGJTFAA ID GJT, ASOS, KGJT 291853Z VRB05KT 10SM CLR 21/M13 A3022 Follow KGJT on AV Mobile GRAND JUNCTION WALKER FIELD 118.550 970-245-7881
KGXYFAA ID GXY, AWOS-3, KGXY 291915Z 18003KT 10SM CLR 17/M06 A3023 RMK AO1 Follow KGXY on AV Mobile Greeley, Greeley-Weld County Airport 135.175 970-352-3511
K2V9ICAO ID K2V9 Gunnison Aviation Weather Reporting Station
KGUCFAA ID GUC, AWOS-3, KGUC 291915Z 15006KT 10SM CLR 16/M09 A3032 RMK AO1 Follow KGUC on AV Mobile Gunnison, Gunnison-Crested Butte Regional Airport 135.075 970-641-3240
KHDNFAA ID HDN, AWOS-3, KHDN 291915Z AUTO 32008KT 10SM CLR 13/M12 A3030 RMK AO1 Follow KHDN on AV Mobile Hayden, Yampa Valley Airport 119.275 970-276-3690
KHEQFAA ID HEQ, AWOS-3, KHEQ 281600Z AUTO 00000KT 10SM CLR 19/00 A3001 RMK AO2 Follow KHEQ on AV Mobile Holyoke Airport 119.275 970-854-3679
K20VFAA ID 20V, AWOS-3, K20V 291915Z AUTO 25013G16KT 10SM CLR 15/M21 A3030 RMK AO2 Follow K20V on AV Mobile Kremmling, Mc Elroy Airfield 118.425 970-724-9659
KLHXFAA ID LHX, ASOS, KLHX 291853Z AUTO 03008G17KT 10SM CLR 18/M07 A3028 RMK AO2 SLP220 T01831067 Follow KLHX on AV Mobile LA JUNTA MUNICIPAL AIRPORT 135.525 719-384-5961
KVTPFAA ID VTP, AWOS-3, KVTP 291914Z AUTO 04004KT 10SM CLR 07/M05 A3043 RMK AO2 Follow KVTP on AV Mobile La Veta Mountain, La Veta Pass 119.925 719-587-3120
KLAAFAA ID LAA, ASOS, KLAA 291853Z AUTO 35016G27KT 7SM BKN034 19/M07 A3024 RMK AO2 PK WND 35029/1817 SLP212 T01941067 Follow KLAA on AV Mobile LAMAR MUNICIPAL AIRPORT 135.625 719-336-3854
KLXVFAA ID LXV, ASOS, KLXV 291853Z AUTO 34008G16KT 10SM CLR 08/M16 A3037 Follow KLXV on AV Mobile LEADVILLE LAKE CO 118.375 719-486-2735
KLICFAA ID LIC, ASOS, KLIC 291855Z AUTO 32009G20KT 10SM CLR 13/M05 A3030 RMK AO2 PK WND 01026/1827 SLP229 T01331050 Follow KLIC on AV Mobile LIMON MUNICIPAL AIRPORT 121.125 719-775-0515
KLMOFAA ID LMO, AWOS-3, KLMO 291915Z AUTO 16006KT 10SM CLR 16/M06 A3027 RMK AO2 T01641057 Follow KLMO on AV Mobile Vance Brand Airport 120.000 303-684-7545
KEEOFAA ID EEO, ASOS, KEEO 291853Z AUTO 24008KT 10SM CLR 17/M09 A3030 RMK AO2 SLP196 T01671094 $ Follow KEEO on AV Mobile MEEKER AIRPORT 135.525 970-878-5036
KMYPFAA ID MYP, AWOS-3, KMYP 271055Z AUTO OVC001 M13/M16 A2976 RMK AO2 PWINO Follow KMYP on AV Mobile Salida Mountain, Monarch Pass 124.175 719-539-4436
KMTJFAA ID MTJ, ASOS, KMTJ 291853Z AUTO 30005KT 10SM CLR 19/M09 A3027 RMK AO2 SLP196 T01891094 Follow KMTJ on AV Mobile MONTROSE REGIONAL AIRPORT 135.225 970-249-1534
KMNHFAA ID MNH, AWOS-3, KMNH 291917Z AUTO 03007KT 10SM CLR 10/M06 A3030 RMK AO2 Follow KMNH on AV Mobile Elbert Mountain, Monument Pass 134.375 303-648-3479
K3MWFAA ID 3MW, AWOS-3, K3MW 211630Z AUTO RMK AO2 TSNO PWINO Follow K3MW on AV Mobile Mount Werner 127.125 970-871-5640
KCRVICAO ID KCRV Nederland Mountain, Corona Pass
KAIBFAA ID AIB, AWOS-3, KAIB 291915Z AUTO 31004KT 10SM CLR 20/M12 A3029 RMK AO2 Follow KAIB on AV Mobile Hopkins Field Airport 132.525 970-864-2325
KPSOFAA ID PSO, AWOS-3, KPSO 291915Z AUTO 23008G15KT 200V260 10SM CLR 19/M11 A3030 RMK AO2 T01891113 Follow KPSO on AV Mobile Stevens Field Airport 127.175 970-731-0365
KPEFICAO ID KPEF Peterson Air Force Base
KPUXICAO ID KPUX Pueblo NEXRAD
KPUBFAA ID PUB, ASOS, KPUB 291853Z 13006KT 10SM CLR 16/M08 A3028 Follow KPUB on AV Mobile PUEBLO MEMORIAL AIRPORT 125.250 719-948-2803
K1V1ICAO ID K1V1 Rifle Aviation Weather Reporting Station
KRILFAA ID RIL, ASOS, KRIL 291853Z AUTO 00000KT 10SM CLR 18/M12 A3026 RMK AO2 SLP193 T01781117 $ Follow KRIL on AV Mobile RIFLE GARFIELD COUNTY RGNL 135.275 970-625-2206
K04VFAA ID 04V, AWOS-3, K04V 291913Z AUTO 32008G21KT 10SM CLR 18/M15 A3030 RMK AO2 Follow K04V on AV Mobile Saguache, Saguache Municipal Airport 118.625 719-655-2229
KS29ICAO ID KS29 Salida
KANKFAA ID ANK, AWOS-3, KANK 291915Z AUTO 24006KT 10SM CLR 19/M14 A3033 RMK AO1 T01871138 Follow KANK on AV Mobile Harriet Alexander Field Airport 133.850 719-539-5268
KSPDICAO ID KSPD, KSPD 291856Z AUTO 02015G27KT 18/M07 A3026 RMK AO1 PK WND 35029/1833 SLP213 T01781067 Follow KSPD on AV Mobile SPRINGFIELD COMANCHE NATL
KSBSFAA ID SBS, AWOS-3, KSBS 291915Z AUTO 00000KT 10SM CLR 12/M09 A3030 RMK AO1 T01241091 Follow KSBS on AV Mobile Steamboat Springs 118.325 970-879-7794
KSTKFAA ID STK, AWOS-3, KSTK 291910Z AUTO 01010G19KT 10SM CLR 16/M03 A3023 RMK AO2 Follow KSTK on AV Mobile Sterling Municipal Airport 118.525 970-526-3009
K5SMFAA ID 5SM, AWOS-3, K5SM 291915Z AUTO 00000KT 10SM CLR 07/M13 A3048 RMK AO2 Follow K5SM on AV Mobile Sunlight 126.075 970-384-3380
KTEXFAA ID TEX, AWOS-3, KTEX 291915Z AUTO 24004KT 10SM CLR 14/M16 A3040 RMK AO2 T01381160 Follow KTEX on AV Mobile Telluride, Telluride Regional Airport 118.325 970-728-1534
KTADFAA ID TAD, ASOS, KTAD 291854Z AUTO 10SM CLR 14/M07 A3032 RMK AO2 SLP219 T01441067 Follow KTAD on AV Mobile Trinidad, Perry Stokes Airport 119.025 719-845-1156
K33VFAA ID 33V, AWOS-3, K33V 291915Z AUTO 21007KT 10SM CLR 11/M13 A3031 RMK AO2 Follow K33V on AV Mobile WALDEN 118.625 970-723-4513
4V1FAA ID 4V1, AWOS-3, KTEX 070640Z AUTO 15005KT 10SM CLR 02/M16 A3038 RMK AO2 T00201164 Follow  on AV Mobile Spanish Peaks Airfield 123.600 719-738-1053
K4BMFAA ID 4BM, AWOS-3, K4BM 291917Z AUTO 28006KT 10SM CLR 07/M19 A3046 RMK AO2 Follow K4BM on AV Mobile Wilkerson Pass 132.3 303-512-4418
KC96ICAO ID KC96 Winter Park Resort
KCPWFAA ID CPW, AWOS-3, KCPW 291915Z AUTO 31004KT 10SM CLR 06/M15 A3053 RMK AO2 Follow KCPW on AV Mobile Pagosa Springs, Wolf Creek Pass 121.125 970-264-2180
K2V5FAA ID 2V5, AWOS-3, K2V5 291915Z AUTO 35015G24KT 10SM CLR 18/M06 A3024 RMK AO2 T01751065 Follow K2V5 on AV Mobile Wray Municipal Airport 118.250 970-332-5930

Click on the AV Mobile icon AV Mobile icon by any station to follow that AWOS feed on AirportView.net Mobile.

Legend: Commercial service airport with AWOS Commercial Airport AWOSNon-Commercial service airport with AWOS Non-Commercial Airport AWOS
Airport AWOS - Click symbol for weather report Fort Morgan Municipal Airport KFMM 291915Z AUTO 35008G18KT 10SM CLR A3026 RMK AO2 Hopkins Field Airport KAIB 291915Z AUTO 31004KT 10SM CLR 20/M12 A3029 RMK AO2 Telluride, Telluride Regional Airport KTEX 291915Z AUTO 24004KT 10SM CLR 14/M16 A3040 RMK AO2 T01381160 Greeley, Greeley-Weld County Airport KGXY 291915Z 18003KT 10SM CLR 17/M06 A3023 RMK AO1 Front Range Airport KFTG 291849Z 08006KT 10SM SKC 13/M04 A3030 Rocky Mountain Metro Airport KBJC 291847Z AUTO 15009G17KT 40SM SKC 13/M07 A3030 DENVER CENTENNIAL AIRPORT KAPA 291853Z 08008KT 040V110 10SM FEW080 12/M06 A3029 RMK AO2 SLP229 T01171061 DENVER INTERNATIONAL AIRPORT KDEN 291853Z 04003KT 10SM CLR 13/M06 A3028 Fort Collins/Loveland, Fort Collins-Loveland Municipal Airport KFNL 291915Z AUTO 20007G14KT 10SM CLR 15/M06 A3026 RMK AO1 Boulder Municipal Airport KBDU 291917Z AUTO 13010G14KT 10SM CLR 15/M05 A3025 RMK AO2 Vance Brand Airport KLMO 291915Z AUTO 16006KT 10SM CLR 16/M06 A3027 RMK AO2 T01641057 Sterling Municipal Airport KSTK 291910Z AUTO 01010G19KT 10SM CLR 16/M03 A3023 RMK AO2 Holyoke Airport KHEQ 281600Z AUTO 00000KT 10SM CLR 19/00 A3001 RMK AO2 COLORADO PLAINS REGIONAL KAKO 291853Z AUTO 35017G25KT 10SM CLR 14/M05 A3026 RMK AO2 PK WND 01030/1758 SLP213 T01441050 Kit Carson County Airport KITR 291853Z AUTO 34019G28KT 10SM CLR 17/M07 A3025 RMK AO2 PK WND 36032/1812 SLP211 T01671067 LIMON MUNICIPAL AIRPORT KLIC 291855Z AUTO 32009G20KT 10SM CLR 13/M05 A3030 RMK AO2 PK WND 01026/1827 SLP229 T01331050 COLORADO SPRINGS MUNI KCOS 291854Z 18005KT 10SM FEW080 13/M07 A3031 LAMAR MUNICIPAL AIRPORT KLAA 291853Z AUTO 35016G27KT 7SM BKN034 19/M07 A3024 RMK AO2 PK WND 35029/1817 SLP212 T01941067 LA JUNTA MUNICIPAL AIRPORT KLHX 291853Z AUTO 03008G17KT 10SM CLR 18/M07 A3028 RMK AO2 SLP220 T01831067 Trinidad, Perry Stokes Airport KTAD 291854Z AUTO 10SM CLR 14/M07 A3032 RMK AO2 SLP219 T01441067 PUEBLO MEMORIAL AIRPORT KPUB 291853Z 13006KT 10SM CLR 16/M08 A3028 CANON CITY 1V6 SAN LUIS VALLEY REGIONAL KALS 291852Z AUTO VRB05KT 10SM CLR 18/M09 A3029 Saguache, Saguache Municipal Airport K04V 291913Z AUTO 32008G21KT 10SM CLR 18/M15 A3030 RMK AO2 Granby-Grand County Airport KGNB WALDEN 33V Steamboat Springs KSBS 291915Z AUTO 00000KT 10SM CLR 12/M09 A3030 RMK AO1 T01241091 Hayden, Yampa Valley Airport KHDN 291915Z AUTO 32008KT 10SM CLR 13/M12 A3030 RMK AO1 Kremmling, Mc Elroy Airfield K20V 291915Z AUTO 25013G16KT 10SM CLR 15/M21 A3030 RMK AO2 LEADVILLE LAKE CO KLXV 291853Z AUTO 34008G16KT 10SM CLR 08/M16 A3037 Eagle County Regional KEGE 291850Z 00000KT 10SM SKC 16/M12 A3029 CRAIG MOFFAT AIRPORT KCAG 291853Z AUTO 26007KT 10SM CLR 15/M08 A3031 MEEKER AIRPORT KEEO 291853Z AUTO 24008KT 10SM CLR 17/M09 A3030 RMK AO2 SLP196 T01671094 $ ASPEN-PITKIN COUNTY AIRPORT KASE 291853Z 04008G15KT 10SM CLR 14/M12 A3031 Gunnison, Gunnison-Crested Butte Regional Airport KGUC 291915Z 15006KT 10SM CLR 16/M09 A3032 RMK AO1 DURANGO-LA PLATA COUNTY AIRPORT  KDRO 291853Z AUTO 25007KT 210V310 10SM CLR 19/M07 A3026 RMK AO2 SLP200 T01941067 Stevens Field Airport KPSO 291915Z AUTO 23008G15KT 200V260 10SM CLR 19/M11 A3030 RMK AO2 T01891113 CORTEZ MONTEZUMA COUNTY AIRPORT  KCEZ 291853Z AUTO 10SM CLR 23/M09 A3025 RMK AO2 SLP193 T02281089 MONTROSE REGIONAL AIRPORT KMTJ 291853Z AUTO 30005KT 10SM CLR 19/M09 A3027 RMK AO2 SLP196 T01891094 RIFLE GARFIELD COUNTY RGNL KRIL 291853Z AUTO 00000KT 10SM CLR 18/M12 A3026 RMK AO2 SLP193 T01781117 $ GRAND JUNCTION WALKER FIELD KGJT 291853Z VRB05KT 10SM CLR 21/M13 A3022 Blake Field Airport KAJZ 291915Z AUTO 27005KT 10SM CLR 22/M13 A3023 RMK AO2 T02191128 Central Colorado Regional Airport KAEJ 291915Z AUTO 06006KT 040V110 10SM CLR 17/M18 A3028 RMK AO2 T01671183 Harriet Alexander Field Airport KANK 291915Z AUTO 24006KT 10SM CLR 19/M14 A3033 RMK AO1 T01871138 Erie Municipal Airport KEIK 291915Z AUTO 13005G09KT 10SM CLR 15/M07 A3026 RMK AO2 T01461071 Wray Municipal Airport K2V5 291915Z AUTO 35015G24KT 10SM CLR 18/M06 A3024 RMK AO2 T01751065
Legend: High Mountain AWOS Mountain Pass AWOS
Mountain Pass AWOS - Click symbol for weather report Pagosa Springs, Wolf Creek Pass KCPW 291915Z AUTO 31004KT 10SM CLR 06/M15 A3053 RMK AO2 Saguache, Saguache Municipal Airport K04V 291913Z AUTO 32008G21KT 10SM CLR 18/M15 A3030 RMK AO2 Kremmling, Mc Elroy Airfield K20V 291915Z AUTO 25013G16KT 10SM CLR 15/M21 A3030 RMK AO2 La Veta Mountain, La Veta Pass KVTP 291914Z AUTO 04004KT 10SM CLR 07/M05 A3043 RMK AO2 Salida Mountain, Monarch Pass KMYP 271055Z AUTO OVC001 M13/M16 A2976 RMK AO2 PWINO Cottonwood Pass K7BM 291915Z AUTO 00000KT 10SM CLR 14/M30 A3037 RMK AO2 Elbert Mountain, Monument Pass KMNH 291917Z AUTO 03007KT 10SM CLR 10/M06 A3030 RMK AO2 Wilkerson Pass K4BM 291917Z AUTO 28006KT 10SM CLR 07/M19 A3046 RMK AO2 Copper Mountain, Red Cliff Pass KCCU 291915Z AUTO 27011G27KT 10SM CLR 03/M24 A3047 RMK AO2 EMPIRE 0CO Sunlight K5SM 291915Z AUTO 00000KT 10SM CLR 07/M13 A3048 RMK AO2 Mount Werner K3MW 211630Z AUTO RMK AO2 TSNO PWINO
Garmin aera 796 $1999 at Avionics Specialists LLC
Bose A20 Aviation Headsets $995 at Avionics Specialists LLC